createdAt,value
2017-05-03T00:02:06.378Z,102141.96
2017-05-03T00:04:32.244Z,102145.47
2017-05-03T00:06:58.855Z,102143.69
2017-05-03T00:09:24.720Z,102139.77
2017-05-03T00:11:50.680Z,102145.06
2017-05-03T00:14:16.533Z,102138.84
2017-05-03T00:16:43.184Z,102134.93
2017-05-03T00:19:09.142Z,102136.62
2017-05-03T00:21:35.014Z,102142.14
2017-05-03T00:24:01.699Z,102135.00
2017-05-03T00:26:27.580Z,102136.53
2017-05-03T00:28:53.470Z,102139.64
2017-05-03T00:31:19.324Z,102133.94
2017-05-03T00:33:45.209Z,102141.34
2017-05-03T00:36:11.205Z,102135.70
2017-05-03T00:38:37.100Z,102132.59
2017-05-03T00:41:02.967Z,102134.33
2017-05-03T00:43:28.828Z,102136.78
2017-05-03T00:45:54.705Z,102129.05
2017-05-03T00:48:20.648Z,102134.58
2017-05-03T00:50:46.533Z,102128.50
2017-05-03T00:53:12.397Z,102127.03
2017-05-03T00:55:38.260Z,102133.62
2017-05-03T00:58:04.147Z,102127.33
2017-05-03T01:00:30.273Z,102129.19
2017-05-03T01:02:56.185Z,102127.88
2017-05-03T01:05:22.049Z,102125.11
2017-05-03T01:07:47.905Z,102121.91
2017-05-03T01:10:13.804Z,102128.73
2017-05-03T01:12:39.757Z,102124.05
2017-05-03T01:15:05.624Z,102119.22
2017-05-03T01:17:31.497Z,102121.91
2017-05-03T01:19:57.368Z,102121.98
2017-05-03T01:22:23.261Z,102119.52
2017-05-03T01:24:49.259Z,102119.95
2017-05-03T01:27:15.160Z,102119.52
2017-05-03T01:29:41.756Z,102116.97
2017-05-03T01:32:07.709Z,102116.58
2017-05-03T01:34:34.322Z,102108.80
2017-05-03T01:37:00.198Z,102108.96
2017-05-03T01:39:26.063Z,102109.66
2017-05-03T01:41:51.936Z,102119.80
2017-05-03T01:44:17.892Z,102123.19
2017-05-03T01:46:43.743Z,102125.33
2017-05-03T01:49:10.369Z,102117.61
2017-05-03T01:51:36.348Z,102120.28
2017-05-03T01:54:02.215Z,102119.91
2017-05-03T01:56:28.957Z,102124.75
2017-05-03T01:58:55.566Z,102120.81
2017-05-03T02:01:21.435Z,102118.81
2017-05-03T02:03:47.368Z,102122.97
2017-05-03T02:06:13.231Z,102116.20
2017-05-03T02:08:39.183Z,102121.44
2017-05-03T02:11:05.779Z,102121.58
2017-05-03T02:13:31.643Z,102110.30
2017-05-03T02:15:57.518Z,102113.72
2017-05-03T02:18:23.940Z,102115.55
2017-05-03T02:20:49.885Z,102110.48
2017-05-03T02:23:15.757Z,102112.13
2017-05-03T02:25:41.631Z,102106.49
2017-05-03T02:28:07.591Z,102103.63
2017-05-03T02:30:33.474Z,102103.28
2017-05-03T02:33:00.082Z,102106.62
2017-05-03T02:35:25.935Z,102093.50
2017-05-03T02:37:52.557Z,102089.58
2017-05-03T02:40:18.516Z,102098.10
2017-05-03T02:42:44.373Z,102096.72
2017-05-03T02:45:10.243Z,102100.98
2017-05-03T02:47:36.109Z,102092.92
2017-05-03T02:50:01.979Z,102092.08
2017-05-03T02:52:27.856Z,102091.65
2017-05-03T02:54:53.723Z,102094.08
2017-05-03T02:57:19.587Z,102084.66
2017-05-03T02:59:45.459Z,102088.27
2017-05-03T03:02:11.415Z,102099.19
2017-05-03T03:04:37.287Z,102095.08
2017-05-03T03:07:03.900Z,102091.20
2017-05-03T03:09:29.762Z,102091.92
2017-05-03T03:11:55.620Z,102090.80
2017-05-03T03:14:21.516Z,102089.29
2017-05-03T03:16:47.475Z,102093.26
2017-05-03T03:19:13.402Z,102089.66
2017-05-03T03:21:39.270Z,102089.14
2017-05-03T03:24:05.127Z,102089.55
2017-05-03T03:26:31.001Z,102081.74
2017-05-03T03:28:56.951Z,102083.67
2017-05-03T03:31:22.823Z,102083.69
2017-05-03T03:33:48.696Z,102081.74
2017-05-03T03:36:14.601Z,102077.64
2017-05-03T03:38:40.500Z,102080.08
2017-05-03T03:41:06.452Z,102081.09
2017-05-03T03:43:32.329Z,102085.71
2017-05-03T03:45:58.181Z,102086.22
2017-05-03T03:48:24.064Z,102087.55
2017-05-03T03:50:49.927Z,102082.16
2017-05-03T03:53:15.881Z,102074.02
2017-05-03T03:55:42.489Z,102084.00
2017-05-03T03:58:08.361Z,102085.05
2017-05-03T04:00:34.219Z,102083.31
2017-05-03T04:03:00.090Z,102079.57
2017-05-03T04:05:26.792Z,102086.49
2017-05-03T04:07:52.668Z,102077.89
2017-05-03T04:10:18.531Z,102085.98
2017-05-03T04:12:44.403Z,102084.20
2017-05-03T04:15:10.284Z,102085.38
2017-05-03T04:17:36.225Z,102079.20
2017-05-03T04:20:02.140Z,102078.52
2017-05-03T04:22:28.760Z,102078.66
2017-05-03T04:24:55.363Z,102080.33
2017-05-03T04:27:21.221Z,102079.75
2017-05-03T04:29:47.914Z,102076.59
2017-05-03T04:32:13.775Z,102074.30
2017-05-03T04:34:40.377Z,102080.35
2017-05-03T04:37:06.245Z,102082.70
2017-05-03T04:39:32.855Z,102082.55
2017-05-03T04:41:58.821Z,102084.62
2017-05-03T04:44:24.693Z,102084.52
2017-05-03T04:46:50.559Z,102081.13
2017-05-03T04:49:16.439Z,102092.80
2017-05-03T04:51:42.303Z,102085.05
2017-05-03T04:54:08.268Z,102089.59
2017-05-03T04:56:34.131Z,102084.45
2017-05-03T04:59:00.007Z,102089.85
2017-05-03T05:01:25.980Z,102092.44
2017-05-03T05:03:51.964Z,102091.75
2017-05-03T05:06:18.623Z,102090.12
2017-05-03T05:08:45.312Z,102098.36
2017-05-03T05:11:11.270Z,102097.96
2017-05-03T05:13:37.367Z,102097.42
2017-05-03T05:16:03.362Z,102102.52
2017-05-03T05:18:29.256Z,102103.34
2017-05-03T05:20:55.328Z,102102.45
2017-05-03T05:23:21.571Z,102101.34
2017-05-03T05:25:47.504Z,102105.19
2017-05-03T05:28:14.200Z,102104.89
2017-05-03T05:30:40.059Z,102100.41
2017-05-03T05:33:06.752Z,102106.30
2017-05-03T05:35:32.616Z,102100.82
2017-05-03T05:37:59.315Z,102100.64
2017-05-03T05:40:25.190Z,102089.98
2017-05-03T05:42:51.050Z,102098.34
2017-05-03T05:45:16.927Z,102093.12
2017-05-03T05:47:42.786Z,102094.44
2017-05-03T05:50:08.750Z,102096.79
2017-05-03T05:52:35.441Z,102097.86
2017-05-03T05:55:01.381Z,102100.87
2017-05-03T05:57:27.258Z,102100.95
2017-05-03T05:59:53.128Z,102096.05
2017-05-03T06:02:19.011Z,102108.02
2017-05-03T06:04:44.920Z,102103.34
2017-05-03T06:07:10.879Z,102107.98
2017-05-03T06:09:36.756Z,102108.98
2017-05-03T06:12:02.629Z,102104.52
2017-05-03T06:14:28.576Z,102109.19
2017-05-03T06:16:55.268Z,102106.91
2017-05-03T06:19:21.214Z,102103.88
2017-05-03T06:21:47.078Z,102104.02
2017-05-03T06:24:12.956Z,102109.65
2017-05-03T06:26:39.556Z,102111.77
2017-05-03T06:29:05.442Z,102110.11
2017-05-03T06:31:31.388Z,102109.31
2017-05-03T06:33:57.259Z,102108.16
2017-05-03T06:36:23.927Z,102108.55
2017-05-03T06:38:49.789Z,102110.75
2017-05-03T06:41:15.684Z,102111.50
2017-05-03T06:43:41.598Z,102107.03
2017-05-03T06:46:07.488Z,102111.60
2017-05-03T06:48:33.511Z,102107.90
2017-05-03T06:50:59.501Z,102103.88
2017-05-03T06:53:26.236Z,102108.41
2017-05-03T06:55:52.382Z,102101.98
2017-05-03T06:58:18.227Z,102103.95
2017-05-03T07:00:44.108Z,102106.01
2017-05-03T07:03:10.087Z,102108.77
2017-05-03T07:05:35.947Z,102109.27
2017-05-03T07:08:01.848Z,102108.84
2017-05-03T07:10:27.708Z,102108.59
2017-05-03T07:12:53.573Z,102112.92
2017-05-03T07:15:19.529Z,102119.03
2017-05-03T07:17:46.212Z,102117.62
2017-05-03T07:20:12.076Z,102120.98
2017-05-03T07:22:38.025Z,102121.71
2017-05-03T07:25:03.889Z,102130.83
2017-05-03T07:27:29.839Z,102129.68
2017-05-03T07:29:56.467Z,102129.16
2017-05-03T07:32:22.335Z,102133.72
2017-05-03T07:34:48.196Z,102133.28
2017-05-03T07:37:14.067Z,102135.79
2017-05-03T07:39:40.041Z,102141.28
2017-05-03T07:42:05.903Z,102142.09
2017-05-03T07:44:31.783Z,102145.50
2017-05-03T07:46:57.651Z,102151.70
2017-05-03T07:49:23.524Z,102158.91
2017-05-03T07:51:49.396Z,102156.92
2017-05-03T07:54:15.283Z,102156.98
2017-05-03T07:56:42.003Z,102161.02
2017-05-03T07:59:08.640Z,102162.25
2017-05-03T08:01:34.507Z,102163.83
2017-05-03T08:04:00.375Z,102165.36
2017-05-03T08:06:26.238Z,102160.41
2017-05-03T08:08:52.227Z,102159.73
2017-05-03T08:11:18.853Z,102166.91
2017-05-03T08:13:44.721Z,102167.62
2017-05-03T08:16:10.595Z,102172.86
2017-05-03T08:18:36.453Z,102173.47
2017-05-03T08:21:02.412Z,102174.30
2017-05-03T08:23:28.280Z,102175.75
2017-05-03T08:25:54.156Z,102177.31
2017-05-03T08:28:20.017Z,102176.37
2017-05-03T08:30:46.619Z,102181.55
2017-05-03T08:33:12.503Z,102183.23
2017-05-03T08:35:38.371Z,102185.72
2017-05-03T08:38:04.976Z,102183.05
2017-05-03T08:40:30.939Z,102184.60
2017-05-03T08:42:57.545Z,102189.47
2017-05-03T08:45:23.433Z,102195.52
2017-05-03T08:47:49.296Z,102192.06
2017-05-03T08:50:15.163Z,102186.87
2017-05-03T08:52:41.040Z,102190.80
2017-05-03T08:55:07.674Z,102198.91
2017-05-03T08:57:33.575Z,102199.24
2017-05-03T08:59:59.429Z,102198.30
2017-05-03T09:02:26.048Z,102200.34
2017-05-03T09:04:51.996Z,102199.88
2017-05-03T09:07:17.950Z,102200.78
2017-05-03T09:09:43.822Z,102205.38
2017-05-03T09:12:10.448Z,102208.69
2017-05-03T09:14:36.311Z,102208.22
2017-05-03T09:17:02.222Z,102214.75
2017-05-03T09:19:28.199Z,102213.14
2017-05-03T09:21:54.818Z,102217.27
2017-05-03T09:24:20.776Z,102219.30
2017-05-03T09:26:47.388Z,102219.06
2017-05-03T09:29:13.290Z,102223.78
2017-05-03T09:31:39.153Z,102217.75
2017-05-03T09:34:05.766Z,102228.23
2017-05-03T09:36:31.724Z,102227.69
2017-05-03T09:38:57.605Z,102232.30
2017-05-03T09:41:23.490Z,102226.84
2017-05-03T09:43:49.390Z,102232.12
2017-05-03T09:46:15.283Z,102228.78
2017-05-03T09:48:41.984Z,102231.90
2017-05-03T09:51:07.855Z,102227.63
2017-05-03T09:53:33.743Z,102234.19
2017-05-03T09:55:59.866Z,102234.38
2017-05-03T09:58:25.814Z,102231.91
2017-05-03T10:00:52.547Z,102236.23
2017-05-03T10:03:19.159Z,102233.66
2017-05-03T10:05:45.171Z,102232.09
2017-05-03T10:08:11.245Z,102232.36
2017-05-03T10:10:54.660Z,102234.38
2017-05-03T10:13:21.263Z,102230.19
2017-05-03T10:15:47.343Z,102228.97
2017-05-03T10:18:13.315Z,102233.69
2017-05-03T10:20:39.337Z,102228.84
2017-05-03T10:23:05.398Z,102221.66
2017-05-03T10:25:31.500Z,102217.09
2017-05-03T10:27:57.663Z,102226.76
2017-05-03T10:30:23.954Z,102224.77
2017-05-03T10:32:50.760Z,102224.14
2017-05-03T10:35:16.698Z,102231.61
2017-05-03T10:37:42.575Z,102230.98
2017-05-03T10:40:08.548Z,102236.34
2017-05-03T10:42:34.621Z,102241.55
2017-05-03T10:45:00.522Z,102235.83
2017-05-03T10:47:26.460Z,102236.49
2017-05-03T10:49:52.330Z,102237.30
2017-05-03T10:52:18.204Z,102239.86
2017-05-03T10:54:44.078Z,102240.66
2017-05-03T10:57:10.681Z,102233.47
2017-05-03T10:59:36.627Z,102235.64
2017-05-03T11:02:03.243Z,102241.14
2017-05-03T11:04:29.204Z,102242.25
2017-05-03T11:06:55.819Z,102238.52
2017-05-03T11:09:21.692Z,102234.00
2017-05-03T11:11:47.560Z,102235.51
2017-05-03T11:14:14.179Z,102240.42
2017-05-03T11:16:40.057Z,102237.23
2017-05-03T11:19:05.936Z,102234.03
2017-05-03T11:21:32.641Z,102241.48
2017-05-03T11:23:58.583Z,102245.39
2017-05-03T11:26:24.512Z,102242.67
2017-05-03T11:28:51.132Z,102238.47
2017-05-03T11:31:17.001Z,102245.53
2017-05-03T11:33:42.963Z,102245.27
2017-05-03T11:36:08.852Z,102241.72
2017-05-03T11:38:34.732Z,102238.10
2017-05-03T11:41:01.355Z,102237.88
2017-05-03T11:43:27.211Z,102235.04
2017-05-03T11:45:53.163Z,102232.91
2017-05-03T11:48:19.027Z,102233.03
2017-05-03T11:50:45.661Z,102232.64
2017-05-03T11:53:11.548Z,102231.51
2017-05-03T11:55:37.469Z,102237.03
2017-05-03T11:58:03.406Z,102231.14
2017-05-03T12:00:29.303Z,102228.48
2017-05-03T12:02:55.173Z,102230.94
2017-05-03T12:05:21.787Z,102233.00
2017-05-03T12:07:47.664Z,102232.09
2017-05-03T12:10:13.635Z,102233.63
2017-05-03T12:12:40.292Z,102236.09
2017-05-03T12:15:06.895Z,102233.36
2017-05-03T12:17:32.768Z,102236.19
2017-05-03T12:19:58.719Z,102233.17
2017-05-03T12:22:24.586Z,102232.17
2017-05-03T12:24:51.283Z,102228.89
2017-05-03T12:27:17.144Z,102239.81
2017-05-03T12:29:43.767Z,102228.91
2017-05-03T12:32:10.447Z,102222.42
2017-05-03T12:34:36.320Z,102228.25
2017-05-03T12:37:03.076Z,102227.13
2017-05-03T12:39:29.051Z,102229.68
2017-05-03T12:41:54.933Z,102227.22
2017-05-03T12:44:20.889Z,102225.52
2017-05-03T12:46:46.779Z,102229.40
2017-05-03T12:49:12.674Z,102229.30
2017-05-03T12:51:39.328Z,102226.40
2017-05-03T12:54:05.336Z,102221.28
2017-05-03T12:56:32.029Z,102222.42
2017-05-03T12:58:57.896Z,102219.84
2017-05-03T13:01:24.524Z,102219.64
2017-05-03T13:03:51.135Z,102223.60
2017-05-03T13:06:17.056Z,102225.23
2017-05-03T13:08:43.022Z,102221.08
2017-05-03T13:11:08.894Z,102233.25
2017-05-03T13:13:34.770Z,102231.50
2017-05-03T13:16:00.642Z,102229.66
2017-05-03T13:18:27.256Z,102232.69
2017-05-03T13:20:53.201Z,102229.45
2017-05-03T13:23:19.084Z,102231.34
2017-05-03T13:25:44.961Z,102225.36
2017-05-03T13:28:11.559Z,102226.31
2017-05-03T13:30:37.493Z,102229.55
2017-05-03T13:33:03.457Z,102233.56
2017-05-03T13:35:29.335Z,102224.80
2017-05-03T13:37:55.241Z,102228.63
2017-05-03T13:40:21.088Z,102232.63
2017-05-03T13:42:47.704Z,102231.77
2017-05-03T13:45:13.659Z,102233.70
2017-05-03T13:47:39.533Z,102235.05
2017-05-03T13:50:05.396Z,102235.36
2017-05-03T13:52:31.275Z,102229.78
2017-05-03T13:54:57.148Z,102231.12
2017-05-03T13:57:23.106Z,102233.30
2017-05-03T13:59:48.983Z,102230.16
2017-05-03T14:02:14.899Z,102227.70
2017-05-03T14:04:41.502Z,102218.62
2017-05-03T14:07:07.379Z,102218.84
2017-05-03T14:09:33.260Z,102229.51
2017-05-03T14:12:00.096Z,102227.52
2017-05-03T14:14:26.711Z,102230.16
2017-05-03T14:16:52.585Z,102231.48
2017-05-03T14:19:18.451Z,102226.56
2017-05-03T14:21:44.330Z,102229.86
2017-05-03T14:24:10.287Z,102231.41
2017-05-03T14:26:36.152Z,102232.26
2017-05-03T14:29:02.027Z,102224.13
2017-05-03T14:31:27.891Z,102227.98
2017-05-03T14:33:53.769Z,102223.69
2017-05-03T14:36:19.727Z,102226.68
2017-05-03T14:38:45.612Z,102221.98
2017-05-03T14:41:11.481Z,102226.73
2017-05-03T14:43:37.408Z,102219.18
2017-05-03T14:46:03.272Z,102215.02
2017-05-03T14:48:29.229Z,102217.53
2017-05-03T14:50:55.119Z,102207.44
2017-05-03T14:53:21.016Z,102213.45
2017-05-03T14:55:46.899Z,102207.64
2017-05-03T14:58:12.760Z,102214.16
2017-05-03T15:00:38.761Z,102221.13
2017-05-03T15:03:04.615Z,102218.69
2017-05-03T15:05:30.480Z,102215.97
2017-05-03T15:07:56.360Z,102212.45
2017-05-03T15:10:23.053Z,102206.91
2017-05-03T15:12:49.108Z,102209.00
2017-05-03T15:15:14.999Z,102206.52
2017-05-03T15:17:40.907Z,102204.22
2017-05-03T15:20:06.764Z,102209.30
2017-05-03T15:22:32.644Z,102209.30
2017-05-03T15:24:58.675Z,102198.67
2017-05-03T15:27:24.560Z,102196.36
2017-05-03T15:29:51.183Z,102192.58
2017-05-03T15:32:17.812Z,102191.27
2017-05-03T15:34:43.686Z,102191.65
2017-05-03T15:37:09.646Z,102186.31
2017-05-03T15:39:35.547Z,102188.77
2017-05-03T15:42:01.421Z,102185.61
2017-05-03T15:44:27.405Z,102181.73
2017-05-03T15:46:53.273Z,102185.77
2017-05-03T15:49:19.243Z,102188.38
2017-05-03T15:51:45.111Z,102195.02
2017-05-03T15:54:11.037Z,102194.30
2017-05-03T15:56:36.931Z,102195.02
2017-05-03T15:59:03.542Z,102191.03
2017-05-03T16:01:29.415Z,102193.77
2017-05-03T16:03:55.764Z,102194.88
2017-05-03T16:06:21.627Z,102193.13
2017-05-03T16:08:48.256Z,102195.14
2017-05-03T16:11:14.871Z,102194.66
2017-05-03T16:13:40.825Z,102195.12
2017-05-03T16:16:07.608Z,102195.63
2017-05-03T16:18:33.458Z,102202.00
2017-05-03T16:20:59.340Z,102196.16
2017-05-03T16:23:25.215Z,102201.27
2017-05-03T16:25:51.850Z,102208.95
2017-05-03T16:28:17.811Z,102207.96
2017-05-03T16:30:43.728Z,102212.44
2017-05-03T16:33:09.614Z,102203.89
2017-05-03T16:35:36.232Z,102214.20
2017-05-03T16:38:02.162Z,102216.77
2017-05-03T16:40:28.129Z,102218.53
2017-05-03T16:42:53.992Z,102217.34
2017-05-03T16:45:19.980Z,102218.38
2017-05-03T16:47:45.849Z,102217.97
2017-05-03T16:50:12.470Z,102210.45
2017-05-03T16:52:38.360Z,102209.22
2017-05-03T16:55:04.250Z,102206.23
2017-05-03T16:57:30.217Z,102208.97
2017-05-03T16:59:56.136Z,102204.79
2017-05-03T17:02:22.004Z,102204.11
2017-05-03T17:04:48.612Z,102206.91
2017-05-03T17:07:14.495Z,102202.87
2017-05-03T17:09:40.467Z,102200.83
2017-05-03T17:12:07.133Z,102203.43
2017-05-03T17:14:33.029Z,102210.09
2017-05-03T17:16:58.939Z,102206.67
2017-05-03T17:19:24.810Z,102209.63
2017-05-03T17:21:50.722Z,102211.59
2017-05-03T17:24:16.593Z,102212.02
2017-05-03T17:26:42.591Z,102216.36
2017-05-03T17:29:08.475Z,102214.84
2017-05-03T17:31:42.088Z,102218.25
2017-05-03T17:34:08.082Z,102221.52
2017-05-03T17:36:34.687Z,102215.19
2017-05-03T17:39:00.837Z,102217.61
2017-05-03T17:41:27.449Z,102223.25
2017-05-03T17:43:53.356Z,102231.05
2017-05-03T17:46:19.246Z,102229.91
2017-05-03T17:48:45.115Z,102229.95
2017-05-03T17:51:10.977Z,102235.89
2017-05-03T17:53:36.853Z,102231.53
2017-05-03T17:56:02.791Z,102241.17
2017-05-03T17:58:29.408Z,102237.19
2017-05-03T18:00:55.332Z,102230.66
2017-05-03T18:03:21.246Z,102227.22
2017-05-03T18:05:47.096Z,102234.49
2017-05-03T18:08:13.800Z,102229.14
2017-05-03T18:10:39.679Z,102234.20
2017-05-03T18:13:05.650Z,102229.42
2017-05-03T18:15:31.531Z,102235.01
2017-05-03T18:17:57.399Z,102240.02
2017-05-03T18:20:24.004Z,102234.55
2017-05-03T18:22:49.926Z,102236.16
2017-05-03T18:25:15.867Z,102233.08
2017-05-03T18:27:41.749Z,102233.64
2017-05-03T18:30:07.769Z,102240.88
2017-05-03T18:32:33.627Z,102240.98
2017-05-03T18:34:59.588Z,102241.06
2017-05-03T18:37:25.548Z,102241.70
2017-05-03T18:39:51.454Z,102244.62
2017-05-03T18:42:17.336Z,102242.12
2017-05-03T18:44:43.937Z,102244.74
2017-05-03T18:47:09.836Z,102245.94
2017-05-03T18:49:35.809Z,102255.69
2017-05-03T18:52:02.419Z,102252.41
2017-05-03T18:54:28.336Z,102256.33
2017-05-03T18:56:54.200Z,102255.23
2017-05-03T18:59:20.122Z,102264.81
2017-05-03T19:01:46.125Z,102267.22
2017-05-03T19:04:12.951Z,102265.27
2017-05-03T19:06:38.863Z,102255.58
2017-05-03T19:09:04.809Z,102264.47
2017-05-03T19:11:31.498Z,102263.27
2017-05-03T19:13:57.449Z,102270.97
2017-05-03T19:16:23.364Z,102273.94
2017-05-03T19:18:49.242Z,102275.12
2017-05-03T19:21:15.110Z,102282.37
2017-05-03T19:23:41.013Z,102283.41
2017-05-03T19:26:06.939Z,102286.47
2017-05-03T19:28:32.931Z,102290.20
2017-05-03T19:30:58.813Z,102289.41
2017-05-03T19:33:24.771Z,102288.20
2017-05-03T19:35:50.665Z,102286.58
2017-05-03T19:38:16.553Z,102286.74
2017-05-03T19:40:43.188Z,102286.30
2017-05-03T19:43:09.160Z,102283.22
2017-05-03T19:45:35.036Z,102280.35
2017-05-03T19:48:01.730Z,102279.27
2017-05-03T19:50:27.641Z,102281.93
2017-05-03T19:52:53.523Z,102282.06
2017-05-03T19:55:19.514Z,102281.70
2017-05-03T19:57:45.400Z,102281.47
2017-05-03T20:00:11.285Z,102288.38
2017-05-03T20:02:37.908Z,102289.36
2017-05-03T20:05:04.565Z,102280.36
2017-05-03T20:07:31.289Z,102279.12
2017-05-03T20:09:57.902Z,102279.99
2017-05-03T20:12:23.812Z,102279.76
2017-05-03T20:14:49.684Z,102282.94
2017-05-03T20:17:15.618Z,102279.05
2017-05-03T20:19:41.634Z,102284.08
2017-05-03T20:22:07.541Z,102293.56
2017-05-03T20:24:34.248Z,102291.88
2017-05-03T20:27:00.142Z,102284.52
2017-05-03T20:29:26.017Z,102292.11
2017-05-03T20:31:52.649Z,102291.33
2017-05-03T20:34:19.280Z,102297.34
2017-05-03T20:36:46.054Z,102299.77
2017-05-03T20:39:11.960Z,102297.67
2017-05-03T20:41:37.834Z,102298.17
2017-05-03T20:44:03.719Z,102292.58
2017-05-03T20:46:29.724Z,102298.01
2017-05-03T20:48:56.404Z,102294.47
2017-05-03T20:51:22.292Z,102301.08
2017-05-03T20:53:48.176Z,102303.64
2017-05-03T20:56:14.796Z,102308.50
2017-05-03T20:58:40.711Z,102306.34
2017-05-03T21:01:06.664Z,102314.39
2017-05-03T21:03:33.305Z,102319.85
2017-05-03T21:05:59.243Z,102311.75
2017-05-03T21:08:25.182Z,102320.80
2017-05-03T21:10:51.027Z,102313.62
2017-05-03T21:13:16.995Z,102320.42
2017-05-03T21:15:42.875Z,102319.20
2017-05-03T21:18:08.772Z,102326.72
2017-05-03T21:20:34.664Z,102319.30
2017-05-03T21:23:00.540Z,102323.03
2017-05-03T21:25:27.223Z,102322.88
2017-05-03T21:27:53.101Z,102327.27
2017-05-03T21:30:19.740Z,102327.86
2017-05-03T21:32:46.370Z,102325.80
2017-05-03T21:35:12.389Z,102322.32
2017-05-03T21:37:38.437Z,102331.72
2017-05-03T21:40:05.066Z,102333.90
2017-05-03T21:42:31.674Z,102331.46
2017-05-03T21:44:57.549Z,102329.52
2017-05-03T21:47:23.423Z,102334.47
2017-05-03T21:49:49.368Z,102335.37
2017-05-03T21:52:15.268Z,102324.02
2017-05-03T21:54:41.178Z,102332.96
2017-05-03T21:57:07.097Z,102332.55
2017-05-03T21:59:32.944Z,102330.55
2017-05-03T22:01:59.630Z,102328.92
2017-05-03T22:04:25.499Z,102337.77
2017-05-03T22:06:52.099Z,102339.70
2017-05-03T22:09:17.970Z,102330.69
2017-05-03T22:11:43.842Z,102330.81
2017-05-03T22:14:09.753Z,102336.16
2017-05-03T22:16:35.632Z,102334.28
2017-05-03T22:19:01.600Z,102333.30
2017-05-03T22:21:27.497Z,102338.41
2017-05-03T22:23:53.376Z,102332.08
2017-05-03T22:26:19.998Z,102335.05
2017-05-03T22:28:46.612Z,102330.20
2017-05-03T22:31:12.487Z,102330.30
2017-05-03T22:33:38.365Z,102328.89
2017-05-03T22:36:04.232Z,102325.57
2017-05-03T22:38:30.184Z,102331.87
2017-05-03T22:40:56.221Z,102330.22
2017-05-03T22:43:22.139Z,102323.21
2017-05-03T22:45:48.032Z,102321.29
2017-05-03T22:48:13.952Z,102329.64
2017-05-03T22:50:39.882Z,102330.19
2017-05-03T22:53:05.853Z,102330.63
2017-05-03T22:55:32.531Z,102332.23
2017-05-03T22:57:58.438Z,102332.98
2017-05-03T23:00:25.025Z,102336.41
2017-05-03T23:02:50.889Z,102338.03
2017-05-03T23:05:16.756Z,102332.38
2017-05-03T23:07:42.623Z,102329.37
2017-05-03T23:10:08.483Z,102330.80
2017-05-03T23:12:34.455Z,102329.11
2017-05-03T23:15:00.317Z,102331.00
2017-05-03T23:17:26.199Z,102328.76
2017-05-03T23:19:52.159Z,102328.32
2017-05-03T23:22:18.073Z,102334.27
2017-05-03T23:24:44.001Z,102335.12
2017-05-03T23:27:09.879Z,102333.19
2017-05-03T23:29:35.748Z,102329.75
2017-05-03T23:32:01.839Z,102330.56
2017-05-03T23:34:27.703Z,102324.87
2017-05-03T23:36:53.570Z,102325.14
2017-05-03T23:39:19.444Z,102327.06
2017-05-03T23:41:45.305Z,102328.03
2017-05-03T23:44:11.346Z,102326.30
2017-05-03T23:46:37.223Z,102326.42
2017-05-03T23:49:03.833Z,102321.58
2017-05-03T23:51:29.699Z,102323.27
2017-05-03T23:53:55.567Z,102319.89
2017-05-03T23:56:21.503Z,102317.27
2017-05-03T23:58:48.120Z,102320.32
